New Del Mar — WDA8503 — position and weather

sailwx.info

Track history (hours):
 
Tides and Currents Weather Stations Pressure Air Temp Water Temp Dewpoint Dewpoint Depression Visibility Wind Speed Wind Dir Waves Ship Positions

New Del Mar

Owner: DEL MAR SPORTFISHING INC, MANHATTAN BEACH, CA. More information available from US FCC via Universal Licensing System and Coast Guard Vessel Documentation Center.

Last reported at 2018-Aug-16 19:57 UTC. Time now 2018-Aug-16 20:18 UTC.
Position N 33°58' W 118°27'.

MMSI: 366855060.

Date/timePositionNaut miles runAvg speedWind from/ knotsBaromVisibWave heightAir tempDewpointWater temp
2018-Aug-16 19:57N 33°58' W 118°27'0 0.2
2018-Aug-16 19:31N 33°58' W 118°27'4 8.8
2018-Aug-16 19:00N 33°55' W 118°30'3 5.7
2018-Aug-16 18:30N 33°53' W 118°33'0 0.1
2018-Aug-16 18:01N 33°53' W 118°33'0 0.2
2018-Aug-16 17:31N 33°53' W 118°33'4 8.0
2018-Aug-16 17:00N 33°55' W 118°28'1 2.1
2018-Aug-16 16:31N 33°55' W 118°27'0 0.0
2018-Aug-16 16:01N 33°55' W 118°27'0 0.0
2018-Aug-16 15:30N 33°55' W 118°27'2 4.1
2018-Aug-16 15:00N 33°57' W 118°28'2 2.9
2018-Aug-16 14:29N 33°59' W 118°27'0 0.7
2018-Aug-16 13:59N 33°58' W 118°27'0 0.0
2018-Aug-16 13:30N 33°58' W 118°27'0 0.0
2018-Aug-16 13:00N 33°58' W 118°27'0 0.0
2018-Aug-16 12:30N 33°58' W 118°27'0 0.0
2018-Aug-16 12:00N 33°58' W 118°27'0 0.0
2018-Aug-16 11:29N 33°58' W 118°27'0 0.0
2018-Aug-16 10:59N 33°58' W 118°27'0 0.0
2018-Aug-16 10:30N 33°58' W 118°27'0 0.0
2018-Aug-16 10:00N 33°58' W 118°27'0 0.0
2018-Aug-16 09:25N 33°58' W 118°27'0 0.0
2018-Aug-16 08:59N 33°58' W 118°27'0 0.0
2018-Aug-16 08:30N 33°58' W 118°27'0 0.0
2018-Aug-16 08:00N 33°58' W 118°27'0 0.0
2018-Aug-16 07:29N 33°58' W 118°27'0 0.0
2018-Aug-16 07:00N 33°58' W 118°27'0 0.0
2018-Aug-16 06:30N 33°58' W 118°27'0 0.0
2018-Aug-16 05:59N 33°58' W 118°27'0 0.0
2018-Aug-16 05:30N 33°58' W 118°27'0 0.0
2018-Aug-16 04:58N 33°58' W 118°27'0 0.0
2018-Aug-16 04:30N 33°58' W 118°27'0 0.0
2018-Aug-16 03:59N 33°58' W 118°27'0 0.0
2018-Aug-16 03:30N 33°58' W 118°27'0 0.0
2018-Aug-16 02:59N 33°58' W 118°27'0 0.0
2018-Aug-16 02:30N 33°58' W 118°27'0 0.0
2018-Aug-16 02:00N 33°58' W 118°27'0 0.0
2018-Aug-16 01:30N 33°58' W 118°27'0 0.0
2018-Aug-16 01:00N 33°58' W 118°27'0 0.7
2018-Aug-16 00:30N 33°59' W 118°27'2 3.6
2018-Aug-16 00:01N 33°57' W 118°28'3 6.4
2018-Aug-15 23:31N 33°54' W 118°28'0 0.0
2018-Aug-15 23:01N 33°54' W 118°28'0 0.0
2018-Aug-15 22:31N 33°54' W 118°28'1 1.6
2018-Aug-15 22:01N 33°53' W 118°28'1 1.9
2018-Aug-15 21:31N 33°53' W 118°27'0 0.7
2018-Aug-15 21:00N 33°53' W 118°26'1 1.3
2018-Aug-15 20:31N 33°54' W 118°26'4 8.8
2018-Aug-15 20:00N 33°58' W 118°27'1 2.1
2018-Aug-15 19:30N 33°59' W 118°27'1 2.8
2018-Aug-15 19:01N 33°58' W 118°28'4 8.2
2018-Aug-15 18:31N 33°55' W 118°31'2 4.6
2018-Aug-15 18:00N 33°53' W 118°33'0 0.7
2018-Aug-15 17:25N 33°53' W 118°34'0 0.3
2018-Aug-15 17:01N 33°53' W 118°34'0 0.0
2018-Aug-15 16:31N 33°53' W 118°34'0 0.2
2018-Aug-15 16:00N 33°53' W 118°34'1 2.5
2018-Aug-15 15:31N 33°54' W 118°33'5 9.4
2018-Aug-15 15:01N 33°57' W 118°28'2 4.7
2018-Aug-15 14:31N 33°59' W 118°27'0 0.7
2018-Aug-15 13:59N 33°58' W 118°27'0 0.0
2018-Aug-15 13:23N 33°58' W 118°27'0 0.0
2018-Aug-15 12:59N 33°58' W 118°27'0 0.0
2018-Aug-15 09:57N 33°58' W 118°27'0 0.0
2018-Aug-15 09:12N 33°58' W 118°27'0 0.0
2018-Aug-15 07:56N 33°58' W 118°27'0 0.0
2018-Aug-15 07:26N 33°58' W 118°27'0 0.0
2018-Aug-15 06:55N 33°58' W 118°27'0 0.0
2018-Aug-15 06:19N 33°58' W 118°27'0 0.0
2018-Aug-15 05:11N 33°58' W 118°27'0 0.0
2018-Aug-15 04:53N 33°58' W 118°27'0 0.0
2018-Aug-15 02:57N 33°58' W 118°27'0 0.0
2018-Aug-15 02:30N 33°58' W 118°27'0 0.0
2018-Aug-15 01:50N 33°58' W 118°27'0 0.0
2018-Aug-15 01:05N 33°58' W 118°27'0 0.0
2018-Aug-15 00:56N 33°58' W 118°27'0 0.9
2018-Aug-15 00:31N 33°59' W 118°27'2 4.9
2018-Aug-15 00:00N 33°59' W 118°30'1 2.8
2018-Aug-14 23:29N 33°60' W 118°31'0 0.7
2018-Aug-14 22:59N 33°60' W 118°31'1 1.7
2018-Aug-14 22:27N 34°00' W 118°32'1 1.6
2018-Aug-14 21:58N 34°01' W 118°33'1 1.4
2018-Aug-14 21:27N 34°01' W 118°33'0 0.0
2018-Aug-14 21:00N 34°01' W 118°33'1 1.3
2018-Aug-14 20:29N 34°01' W 118°33'4 8.5
2018-Aug-14 20:01N 33°58' W 118°29'2 4.7
2018-Aug-14 19:31N 33°59' W 118°27'3 5.6
2018-Aug-14 19:00N 33°56' W 118°28'5 9.6
2018-Aug-14 18:31N 33°52' W 118°31'0 0.2
2018-Aug-14 18:01N 33°52' W 118°31'0 0.3
2018-Aug-14 17:31N 33°52' W 118°31'0 0.9
2018-Aug-14 17:00N 33°52' W 118°31'2 4.0
2018-Aug-14 16:31N 33°52' W 118°28'3 5.7
2018-Aug-14 16:00N 33°51' W 118°25'1 3.0
2018-Aug-14 15:31N 33°52' W 118°26'5 9.5
2018-Aug-14 15:00N 33°57' W 118°27'2 3.2
2018-Aug-14 14:28N 33°59' W 118°27'0 0.8
2018-Aug-14 14:00N 33°58' W 118°27'0 0.0
2018-Aug-14 13:28N 33°58' W 118°27'0 0.0
2018-Aug-14 13:00N 33°58' W 118°27'0 0.0
2018-Aug-14 12:30N 33°58' W 118°27'0 0.0
2018-Aug-14 11:58N 33°58' W 118°27'0 0.0
2018-Aug-14 11:29N 33°58' W 118°27'0 0.0
2018-Aug-14 11:00N 33°58' W 118°27'0 0.0
2018-Aug-14 10:29N 33°58' W 118°27'0 0.0
2018-Aug-14 09:59N 33°58' W 118°27'0 0.0
2018-Aug-14 09:29N 33°58' W 118°27'0 0.0
2018-Aug-14 08:56N 33°58' W 118°27'0 0.0
2018-Aug-14 08:30N 33°58' W 118°27'0 0.0
2018-Aug-14 08:00N 33°58' W 118°27'0 0.0
2018-Aug-14 07:08N 33°58' W 118°27'0 0.0
2018-Aug-14 06:56N 33°58' W 118°27'0 0.0
2018-Aug-14 06:28N 33°58' W 118°27'0 0.0
2018-Aug-14 05:49N 33°58' W 118°27'0 0.0
2018-Aug-14 05:22N 33°58' W 118°27'0 0.0
2018-Aug-14 04:21N 33°58' W 118°27'0 0.0
2018-Aug-14 03:59N 33°58' W 118°27'0 0.0
2018-Aug-14 03:22N 33°58' W 118°27'0 0.0
2018-Aug-14 02:56N 33°58' W 118°27'0 0.0
2018-Aug-14 02:21N 33°58' W 118°27'0 0.0
2018-Aug-14 01:53N 33°58' W 118°27'0 0.0
2018-Aug-14 01:31N 33°58' W 118°27'0 0.0
2018-Aug-14 00:55N 33°58' W 118°27'0 0.5
2018-Aug-14 00:29N 33°59' W 118°27'4 7.5
2018-Aug-14 00:01N 33°56' W 118°29'3 6.8
2018-Aug-13 23:31N 33°53' W 118°32'0 0.0
2018-Aug-13 23:01N 33°53' W 118°32'1 2.1
2018-Aug-13 22:30N 33°53' W 118°31'2 3.2
2018-Aug-13 21:59N 33°54' W 118°29'2 4.7
2018-Aug-13 21:30N 33°55' W 118°27'0 0.0
2018-Aug-13 21:00N 33°55' W 118°27'0 0.7
2018-Aug-13 20:30N 33°55' W 118°27'3 5.7
2018-Aug-13 20:00N 33°58' W 118°27'0 0.4
2018-Aug-13 19:30N 33°58' W 118°27'4 8.8
2018-Aug-13 19:00N 33°55' W 118°31'3 5.4
2018-Aug-13 18:30N 33°53' W 118°33'0 0.0
2018-Aug-13 18:00N 33°53' W 118°33'1 1.2
2018-Aug-13 17:31N 33°53' W 118°32'4 8.9
2018-Aug-13 17:01N 33°55' W 118°27'0 0.3
2018-Aug-13 16:30N 33°55' W 118°27'1 1.3
2018-Aug-13 16:01N 33°55' W 118°26'1 1.9
2018-Aug-13 15:31N 33°54' W 118°27'2 4.9
2018-Aug-13 15:00N 33°57' W 118°28'2 3.9
2018-Aug-13 14:26N 33°59' W 118°27'0 0.9
2018-Aug-13 13:58N 33°58' W 118°27'0 0.0
2018-Aug-13 13:29N 33°58' W 118°27'0 0.0
2018-Aug-13 13:00N 33°58' W 118°27'0 0.0
2018-Aug-13 12:24N 33°58' W 118°27'0 0.0
2018-Aug-13 11:57N 33°58' W 118°27'0 0.0
2018-Aug-13 11:04N 33°58' W 118°27'0 0.0
2018-Aug-13 10:58N 33°58' W 118°27'0 0.0
2018-Aug-13 10:22N 33°58' W 118°27'0 0.0
2018-Aug-13 09:51N 33°58' W 118°27'0 0.0
2018-Aug-13 09:21N 33°58' W 118°27'0 0.0
2018-Aug-13 09:00N 33°58' W 118°27'0 0.0
2018-Aug-13 08:24N 33°58' W 118°27'0 0.0
2018-Aug-13 07:55N 33°58' W 118°27'0 0.0
2018-Aug-13 07:24N 33°58' W 118°27'0 0.0
2018-Aug-13 06:55N 33°58' W 118°27'0 0.0
2018-Aug-13 05:07N 33°58' W 118°27'0 0.0
2018-Aug-13 04:56N 33°58' W 118°27'0 0.0
2018-Aug-13 04:31N 33°58' W 118°27'0 0.0
2018-Aug-13 03:55N 33°58' W 118°27'0 0.0
2018-Aug-13 03:20N 33°58' W 118°27'0 0.0
2018-Aug-13 02:53N 33°58' W 118°27'0 0.0
2018-Aug-13 02:31N 33°58' W 118°27'0 0.0
2018-Aug-13 01:57N 33°58' W 118°27'0 0.0
2018-Aug-13 01:25N 33°58' W 118°27'0 0.9
2018-Aug-13 00:58N 33°59' W 118°27'1 1.3
2018-Aug-13 00:30N 33°58' W 118°27'3 6.0
2018-Aug-13 00:00N 33°55' W 118°27'0 0.2
2018-Aug-12 23:30N 33°55' W 118°27'0 0.0
2018-Aug-12 23:01N 33°55' W 118°27'4 8.7
2018-Aug-12 22:31N 33°53' W 118°31'1 2.2
2018-Aug-12 22:01N 33°52' W 118°33'0 0.0
2018-Aug-12 21:31N 33°52' W 118°33'0 0.1
2018-Aug-12 21:01N 33°52' W 118°33'4 8.1
2018-Aug-12 20:30N 33°55' W 118°29'4 7.2
2018-Aug-12 20:00N 33°58' W 118°27'0 0.2
2018-Aug-12 19:30N 33°58' W 118°27'4 7.7
2018-Aug-12 19:01N 33°55' W 118°30'4 7.0
2018-Aug-12 18:30N 33°53' W 118°32'0 0.2
2018-Aug-12 18:00N 33°53' W 118°32'0 1.0
2018-Aug-12 17:30N 33°53' W 118°33'0 0.0
2018-Aug-12 17:01N 33°53' W 118°33'4 7.6
2018-Aug-12 16:31N 33°55' W 118°28'0 0.0
2018-Aug-12 16:00N 33°55' W 118°28'0 0.1
2018-Aug-12 15:31N 33°54' W 118°28'3 6.9
2018-Aug-12 15:01N 33°58' W 118°27'1 2.1
2018-Aug-12 14:30N 33°59' W 118°27'0 0.7
2018-Aug-12 13:56N 33°58' W 118°27'0 0.0
2018-Aug-12 13:29N 33°58' W 118°27'0 0.0
2018-Aug-12 13:00N 33°58' W 118°27'0 0.0
2018-Aug-12 12:30N 33°58' W 118°27'0 0.0
2018-Aug-12 11:59N 33°58' W 118°27'0 0.0
2018-Aug-12 11:29N 33°58' W 118°27'0 0.0
2018-Aug-12 11:00N 33°58' W 118°27'0 0.0
2018-Aug-12 10:30N 33°58' W 118°27'0 0.0
2018-Aug-12 10:00N 33°58' W 118°27'0 0.0
2018-Aug-12 09:29N 33°58' W 118°27'0 0.0
2018-Aug-12 08:59N 33°58' W 118°27'0 0.0
2018-Aug-12 08:27N 33°58' W 118°27'0 0.0
2018-Aug-12 08:00N 33°58' W 118°27'0 0.0
2018-Aug-12 07:30N 33°58' W 118°27'0 0.0
2018-Aug-12 06:59N 33°58' W 118°27'0 0.0
2018-Aug-12 06:29N 33°58' W 118°27'0 0.7
2018-Aug-12 05:57N 33°59' W 118°27'1 3.0
2018-Aug-12 05:30N 33°58' W 118°28'1 2.4
2018-Aug-12 05:01N 33°58' W 118°29'0 0.1
2018-Aug-12 04:30N 33°58' W 118°29'0 0.1
2018-Aug-12 04:00N 33°58' W 118°29'1 2.4
2018-Aug-12 03:30N 33°57' W 118°29'0 0.3
2018-Aug-12 03:00N 33°57' W 118°29'1 2.5
2018-Aug-12 02:30N 33°58' W 118°29'0 0.2
2018-Aug-12 02:01N 33°58' W 118°29'1 1.9
2018-Aug-12 01:31N 33°58' W 118°28'1 2.7
2018-Aug-12 00:59N 33°59' W 118°27'0 0.4
2018-Aug-12 00:26N 33°59' W 118°27'2 5.0
2018-Aug-12 00:01N 33°57' W 118°28'1 2.5
2018-Aug-11 23:30N 33°55' W 118°27'1 2.1
2018-Aug-11 23:00N 33°55' W 118°29'4 8.8
2018-Aug-11 22:31N 33°53' W 118°33'0 0.1
2018-Aug-11 22:00N 33°53' W 118°34'0 0.2
2018-Aug-11 21:30N 33°53' W 118°33'0 0.0
2018-Aug-11 21:01N 33°53' W 118°33'3 6.2
2018-Aug-11 20:30N 33°55' W 118°31'4 8.1
2018-Aug-11 20:00N 33°58' W 118°27'1 1.2
2018-Aug-11 19:29N 33°59' W 118°27'3 5.6
2018-Aug-11 19:00N 33°56' W 118°28'4 8.9
2018-Aug-11 18:30N 33°53' W 118°32'0 0.8
2018-Aug-11 18:00N 33°53' W 118°32'0 0.8
2018-Aug-11 17:31N 33°53' W 118°32'0 0.7
2018-Aug-11 17:00N 33°53' W 118°33'0 0.7
2018-Aug-11 16:30N 33°53' W 118°33'0 0.0
2018-Aug-11 16:00N 33°53' W 118°33'4 8.5
2018-Aug-11 15:31N 33°55' W 118°28'3 5.8
2018-Aug-11 14:59N 33°58' W 118°28'2 3.1
2018-Aug-11 14:28N 33°59' W 118°27'0 0.4
2018-Aug-11 13:58N 33°59' W 118°27'0 0.5
2018-Aug-11 13:27N 33°58' W 118°27'0 0.0
2018-Aug-11 12:59N 33°58' W 118°27'0 0.0
2018-Aug-11 12:30N 33°58' W 118°27'0 0.0
2018-Aug-11 11:58N 33°58' W 118°27'0 0.0
2018-Aug-11 11:30N 33°58' W 118°27'0 0.0
2018-Aug-11 10:59N 33°58' W 118°27'0 0.0
2018-Aug-11 10:29N 33°58' W 118°27'0 0.0
2018-Aug-11 09:54N 33°58' W 118°27'0 0.0
2018-Aug-11 09:30N 33°58' W 118°27'0 0.0
2018-Aug-11 09:00N 33°58' W 118°27'0 0.0
2018-Aug-11 08:11N 33°58' W 118°27'0 0.0
2018-Aug-11 08:00N 33°58' W 118°27'0 0.0
2018-Aug-11 07:21N 33°58' W 118°27'0 0.0
2018-Aug-11 06:59N 33°58' W 118°27'0 0.0
2018-Aug-11 06:30N 33°58' W 118°27'0 0.4
2018-Aug-11 05:54N 33°59' W 118°27'0 0.4
2018-Aug-11 05:30N 33°58' W 118°27'4 7.8
2018-Aug-11 05:00N 33°60' W 118°31'2 1.3
2018-Aug-11 03:36N 34°01' W 118°33'0 0.0
2018-Aug-11 03:24N 34°01' W 118°33'0 0.7
2018-Aug-11 02:52N 34°01' W 118°33'0 0.0
2018-Aug-11 02:31N 34°01' W 118°33'1 1.4
2018-Aug-11 02:00N 34°01' W 118°32'4 8.8
2018-Aug-11 01:30N 33°58' W 118°28'1 2.7
2018-Aug-11 01:00N 33°59' W 118°27'0 0.0
2018-Aug-11 00:29N 33°59' W 118°27'1 3.1
2018-Aug-11 00:00N 33°57' W 118°27'2 4.1
2018-Aug-10 23:30N 33°55' W 118°27'0 0.0
2018-Aug-10 23:00N 33°55' W 118°27'0 0.1
2018-Aug-10 22:31N 33°55' W 118°27'4 7.0
2018-Aug-10 22:00N 33°54' W 118°31'1 2.2
2018-Aug-10 21:31N 33°53' W 118°32'0 0.1
2018-Aug-10 21:00N 33°53' W 118°32'3 5.2
2018-Aug-10 20:30N 33°55' W 118°30'4 7.8
2018-Aug-10 19:59N 33°58' W 118°27'1 1.1
2018-Aug-10 19:30N 33°59' W 118°27'3 6.8
2018-Aug-10 19:00N 33°56' W 118°29'4 8.5
2018-Aug-10 18:30N 33°53' W 118°33'0 0.1
2018-Aug-10 18:00N 33°53' W 118°33'0 0.0
2018-Aug-10 17:31N 33°53' W 118°33'2 3.2
2018-Aug-10 17:00N 33°53' W 118°31'4 7.9
2018-Aug-10 16:31N 33°55' W 118°26'0 0.0
2018-Aug-10 16:01N 33°54' W 118°26'2 3.8
2018-Aug-10 15:31N 33°54' W 118°28'4 8.3
2018-Aug-10 15:00N 33°58' W 118°27'0 0.8
2018-Aug-10 14:30N 33°58' W 118°27'0 0.0
2018-Aug-10 14:00N 33°58' W 118°27'0 0.2
2018-Aug-10 13:30N 33°58' W 118°27'0 0.0
2018-Aug-10 13:00N 33°58' W 118°27'0 0.0
2018-Aug-10 12:29N 33°58' W 118°27'0 0.0
2018-Aug-10 12:00N 33°58' W 118°27'0 0.0
2018-Aug-10 11:19N 33°58' W 118°27'0 0.0
2018-Aug-10 10:57N 33°58' W 118°27'0 0.0
2018-Aug-10 10:29N 33°58' W 118°27'0 0.0
2018-Aug-10 09:59N 33°58' W 118°27'0 0.0
2018-Aug-10 09:27N 33°58' W 118°27'0 0.0
2018-Aug-10 08:51N 33°58' W 118°27'0 0.0
2018-Aug-10 08:30N 33°58' W 118°27'0 0.0
2018-Aug-10 08:00N 33°58' W 118°27'0 0.0
2018-Aug-10 07:29N 33°58' W 118°27'0 0.0
2018-Aug-10 07:00N 33°58' W 118°27'0 0.0
2018-Aug-10 06:30N 33°58' W 118°27'0 0.0
2018-Aug-10 06:00N 33°58' W 118°27'0 0.0
2018-Aug-10 05:28N 33°58' W 118°27'0 0.0
2018-Aug-10 04:56N 33°58' W 118°27'0 0.0
2018-Aug-10 04:30N 33°58' W 118°27'0 0.0
2018-Aug-10 03:58N 33°58' W 118°27'0 0.0
2018-Aug-10 03:30N 33°58' W 118°27'0 0.0
2018-Aug-10 03:00N 33°58' W 118°27'0 0.0
2018-Aug-10 02:10N 33°58' W 118°27'0 0.0
2018-Aug-10 01:57N 33°58' W 118°27'0 0.0
2018-Aug-10 01:20N 33°58' W 118°27'0 0.3
2018-Aug-10 00:59N 33°58' W 118°27'0 0.2
2018-Aug-10 00:29N 33°59' W 118°27'4 7.8
2018-Aug-10 00:01N 33°56' W 118°30'4 7.6
2018-Aug-09 23:31N 33°53' W 118°33'0 0.0
2018-Aug-09 23:00N 33°53' W 118°33'0 1.0
2018-Aug-09 22:30N 33°53' W 118°32'4 8.5
2018-Aug-09 22:00N 33°55' W 118°28'1 1.4
2018-Aug-09 21:30N 33°55' W 118°27'0 0.0
2018-Aug-09 21:00N 33°55' W 118°27'1 1.6
2018-Aug-09 20:30N 33°56' W 118°27'2 4.5
2018-Aug-09 19:58N 33°58' W 118°27'1 1.5
2018-Aug-09 19:30N 33°58' W 118°27'5 9.2
2018-Aug-09 19:00N 33°53' W 118°28'5 9.6
2018-Aug-09 18:30N 33°48' W 118°29'1 2.1
2018-Aug-09 18:00N 33°47' W 118°29'0 0.4
2018-Aug-09 17:29N 33°47' W 118°29'1 2.0
2018-Aug-09 17:00N 33°47' W 118°28'2 3.3
2018-Aug-09 16:30N 33°46' W 118°26'1 1.2
2018-Aug-09 16:00N 33°47' W 118°26'4 9.0
2018-Aug-09 15:30N 33°51' W 118°26'510.0
2018-Aug-09 15:00N 33°56' W 118°27'2 5.0
2018-Aug-09 14:30N 33°59' W 118°27'0 0.7
2018-Aug-09 13:59N 33°58' W 118°27'0 0.0
2018-Aug-09 13:29N 33°58' W 118°27'0 0.0
2018-Aug-09 12:58N 33°58' W 118°27'0 0.0
2018-Aug-09 12:28N 33°58' W 118°27'0 0.0
2018-Aug-09 11:46N 33°58' W 118°27'0 0.0
2018-Aug-09 11:29N 33°58' W 118°27'0 0.0
2018-Aug-09 10:27N 33°58' W 118°27'0 0.0
2018-Aug-09 09:37N 33°58' W 118°27'0 0.0
2018-Aug-09 09:24N 33°58' W 118°27'0 0.0
2018-Aug-09 07:57N 33°58' W 118°27'0 0.0
2018-Aug-09 07:29N 33°58' W 118°27'0 0.0
2018-Aug-09 06:55N 33°58' W 118°27'0 0.0
2018-Aug-09 06:22N 33°58' W 118°27'0 0.0
2018-Aug-09 05:50N 33°58' W 118°27'0 0.0
2018-Aug-09 05:27N 33°58' W 118°27'0 0.0
2018-Aug-09 04:58N 33°58' W 118°27'0 0.0
2018-Aug-09 04:30N 33°58' W 118°27'0 0.0
2018-Aug-09 03:56N 33°58' W 118°27'0 0.0
2018-Aug-09 03:26N 33°58' W 118°27'0 0.0
2018-Aug-09 02:56N 33°58' W 118°27'0 0.0
2018-Aug-09 02:26N 33°58' W 118°27'0 0.0
2018-Aug-09 01:47N 33°58' W 118°27'0 0.0
2018-Aug-09 01:22N 33°58' W 118°27'0 0.0
2018-Aug-09 00:40N 33°58' W 118°27'0 2.0
2018-Aug-09 00:30N 33°59' W 118°27'1 1.3
2018-Aug-09 00:00N 33°58' W 118°27'2 4.7
2018-Aug-08 23:30N 33°56' W 118°28'0 0.1
2018-Aug-08 23:00N 33°56' W 118°28'0 0.8
2018-Aug-08 22:30N 33°56' W 118°28'1 2.1
2018-Aug-08 22:00N 33°55' W 118°28'1 1.4
2018-Aug-08 21:30N 33°55' W 118°27'0 0.9
2018-Aug-08 21:00N 33°55' W 118°27'0 0.0
2018-Aug-08 20:30N 33°55' W 118°27'3 5.1
2018-Aug-08 20:00N 33°58' W 118°28'1 2.7
2018-Aug-08 19:30N 33°59' W 118°27'1 2.7
2018-Aug-08 19:00N 33°58' W 118°28'4 8.8
2018-Aug-08 18:30N 34°00' W 118°32'0 0.9
2018-Aug-08 18:00N 34°01' W 118°33'0 0.6
2018-Aug-08 17:29N 34°01' W 118°32'0 0.2
2018-Aug-08 17:00N 34°01' W 118°32'0 0.2
2018-Aug-08 16:26N 34°01' W 118°32'0 0.4
2018-Aug-08 15:59N 34°01' W 118°32'0 0.4
2018-Aug-08 15:28N 34°01' W 118°32'4 8.6
2018-Aug-08 15:00N 33°58' W 118°28'2 3.4
2018-Aug-08 14:30N 33°59' W 118°27'0 0.0
2018-Aug-08 05:36N 33°58' W 118°27'0 0.0
2018-Aug-08 05:23N 33°58' W 118°27'0 0.0
2018-Aug-08 03:30N 33°58' W 118°27'0 0.0
2018-Aug-08 01:55N 33°58' W 118°27'0 0.0
2018-Aug-08 01:29N 33°58' W 118°27'0 0.7
2018-Aug-08 00:58N 33°59' W 118°27'0 0.0
2018-Aug-08 00:30N 33°59' W 118°27'4 7.4
2018-Aug-08 00:00N 33°56' W 118°29'4 7.3
2018-Aug-07 23:30N 33°53' W 118°32'0 0.0
2018-Aug-07 22:59N 33°53' W 118°32'0 0.2
2018-Aug-07 22:30N 33°53' W 118°32'0 0.0
2018-Aug-07 22:00N 33°53' W 118°32'0 0.9
2018-Aug-07 21:29N 33°53' W 118°32'0 0.1
2018-Aug-07 21:00N 33°53' W 118°32'3 6.4
2018-Aug-07 20:30N 33°55' W 118°30'4 7.6
2018-Aug-07 19:58N 33°58' W 118°27'0 0.8
2018-Aug-07 19:30N 33°59' W 118°27'3 5.9
2018-Aug-07 19:00N 33°59' W 118°30'2 4.7
2018-Aug-07 18:30N 34°01' W 118°32'1 1.9
2018-Aug-07 18:00N 34°02' W 118°32'0 0.2
2018-Aug-07 17:30N 34°02' W 118°32'1 2.2
2018-Aug-07 16:59N 34°01' W 118°33'0 0.1
2018-Aug-07 16:30N 34°01' W 118°33'0 0.2
2018-Aug-07 16:00N 34°01' W 118°33'0 0.0
2018-Aug-07 15:30N 34°01' W 118°33'5 9.0
2018-Aug-07 15:00N 33°58' W 118°29'2 4.5
2018-Aug-07 14:30N 33°59' W 118°27'0 0.5
2018-Aug-07 13:46N 33°58' W 118°27'0 0.0
2018-Aug-07 12:22N 33°58' W 118°27'0 0.0
2018-Aug-07 06:52N 33°58' W 118°27'0 0.0
2018-Aug-07 06:23N 33°58' W 118°27'0 0.0
2018-Aug-07 05:54N 33°58' W 118°27'0 0.0
2018-Aug-07 03:45N 33°58' W 118°27'0 0.0
2018-Aug-07 03:22N 33°58' W 118°27'0 0.0
2018-Aug-07 02:56N 33°58' W 118°27'0 0.0
2018-Aug-07 02:27N 33°58' W 118°27'0 0.0
2018-Aug-07 02:00N 33°58' W 118°27'0 0.0
2018-Aug-07 01:21N 33°58' W 118°27'0 1.1
2018-Aug-07 01:00N 33°59' W 118°27'0 0.3
2018-Aug-07 00:29N 33°59' W 118°27'3 6.2
2018-Aug-07 00:00N 33°56' W 118°27'0 0.7
2018-Aug-06 23:30N 33°55' W 118°27'0 0.1
2018-Aug-06 23:00N 33°55' W 118°27'5 9.5
2018-Aug-06 22:30N 33°53' W 118°33'0 0.7
2018-Aug-06 22:00N 33°53' W 118°33'0 0.0
2018-Aug-06 21:30N 33°53' W 118°33'1 1.9
2018-Aug-06 21:00N 33°53' W 118°32'3 5.3
2018-Aug-06 20:30N 33°55' W 118°29'4 8.3
2018-Aug-06 20:00N 33°58' W 118°27'  
Track history (hours):
 
Tides and Currents Weather Stations Pressure Air Temp Water Temp Dewpoint Dewpoint Depression Visibility Wind Speed Wind Dir Waves Ship Positions

New Del Mar

Owner: DEL MAR SPORTFISHING INC, MANHATTAN BEACH, CA. More information available from US FCC via Universal Licensing System and Coast Guard Vessel Documentation Center.

Last reported at 2018-Aug-16 19:57 UTC. Time now 2018-Aug-16 20:18 UTC.
Position N 33°58' W 118°27'.

MMSI: 366855060.

Date/timePositionNaut miles runAvg speedWind from/ knotsBaromVisibWave heightAir tempDewpointWater temp
2018-Aug-16 19:57N 33°58' W 118°27'0 0.2
2018-Aug-16 19:31N 33°58' W 118°27'4 8.8
2018-Aug-16 19:00N 33°55' W 118°30'3 5.7
2018-Aug-16 18:30N 33°53' W 118°33'0 0.1
2018-Aug-16 18:01N 33°53' W 118°33'0 0.2
2018-Aug-16 17:31N 33°53' W 118°33'4 8.0
2018-Aug-16 17:00N 33°55' W 118°28'1 2.1
2018-Aug-16 16:31N 33°55' W 118°27'0 0.0
2018-Aug-16 16:01N 33°55' W 118°27'0 0.0
2018-Aug-16 15:30N 33°55' W 118°27'2 4.1
2018-Aug-16 15:00N 33°57' W 118°28'2 2.9
2018-Aug-16 14:29N 33°59' W 118°27'0 0.7
2018-Aug-16 13:59N 33°58' W 118°27'0 0.0
2018-Aug-16 13:30N 33°58' W 118°27'0 0.0
2018-Aug-16 13:00N 33°58' W 118°27'0 0.0
2018-Aug-16 12:30N 33°58' W 118°27'0 0.0
2018-Aug-16 12:00N 33°58' W 118°27'0 0.0
2018-Aug-16 11:29N 33°58' W 118°27'0 0.0
2018-Aug-16 10:59N 33°58' W 118°27'0 0.0
2018-Aug-16 10:30N 33°58' W 118°27'0 0.0
2018-Aug-16 10:00N 33°58' W 118°27'0 0.0
2018-Aug-16 09:25N 33°58' W 118°27'0 0.0
2018-Aug-16 08:59N 33°58' W 118°27'0 0.0
2018-Aug-16 08:30N 33°58' W 118°27'0 0.0
2018-Aug-16 08:00N 33°58' W 118°27'0 0.0
2018-Aug-16 07:29N 33°58' W 118°27'0 0.0
2018-Aug-16 07:00N 33°58' W 118°27'0 0.0
2018-Aug-16 06:30N 33°58' W 118°27'0 0.0
2018-Aug-16 05:59N 33°58' W 118°27'0 0.0
2018-Aug-16 05:30N 33°58' W 118°27'0 0.0
2018-Aug-16 04:58N 33°58' W 118°27'0 0.0
2018-Aug-16 04:30N 33°58' W 118°27'0 0.0
2018-Aug-16 03:59N 33°58' W 118°27'0 0.0
2018-Aug-16 03:30N 33°58' W 118°27'0 0.0
2018-Aug-16 02:59N 33°58' W 118°27'0 0.0
2018-Aug-16 02:30N 33°58' W 118°27'0 0.0
2018-Aug-16 02:00N 33°58' W 118°27'0 0.0
2018-Aug-16 01:30N 33°58' W 118°27'0 0.0
2018-Aug-16 01:00N 33°58' W 118°27'0 0.7
2018-Aug-16 00:30N 33°59' W 118°27'2 3.6
2018-Aug-16 00:01N 33°57' W 118°28'3 6.4
2018-Aug-15 23:31N 33°54' W 118°28'0 0.0
2018-Aug-15 23:01N 33°54' W 118°28'0 0.0
2018-Aug-15 22:31N 33°54' W 118°28'1 1.6
2018-Aug-15 22:01N 33°53' W 118°28'1 1.9
2018-Aug-15 21:31N 33°53' W 118°27'0 0.7
2018-Aug-15 21:00N 33°53' W 118°26'1 1.3
2018-Aug-15 20:31N 33°54' W 118°26'4 8.8
2018-Aug-15 20:00N 33°58' W 118°27'1 2.1
2018-Aug-15 19:30N 33°59' W 118°27'1 2.8
2018-Aug-15 19:01N 33°58' W 118°28'4 8.2
2018-Aug-15 18:31N 33°55' W 118°31'2 4.6
2018-Aug-15 18:00N 33°53' W 118°33'0 0.7
2018-Aug-15 17:25N 33°53' W 118°34'0 0.3
2018-Aug-15 17:01N 33°53' W 118°34'0 0.0
2018-Aug-15 16:31N 33°53' W 118°34'0 0.2
2018-Aug-15 16:00N 33°53' W 118°34'1 2.5
2018-Aug-15 15:31N 33°54' W 118°33'5 9.4
2018-Aug-15 15:01N 33°57' W 118°28'2 4.7
2018-Aug-15 14:31N 33°59' W 118°27'0 0.7
2018-Aug-15 13:59N 33°58' W 118°27'0 0.0
2018-Aug-15 13:23N 33°58' W 118°27'0 0.0
2018-Aug-15 12:59N 33°58' W 118°27'0 0.0
2018-Aug-15 09:57N 33°58' W 118°27'0 0.0
2018-Aug-15 09:12N 33°58' W 118°27'0 0.0
2018-Aug-15 07:56N 33°58' W 118°27'0 0.0
2018-Aug-15 07:26N 33°58' W 118°27'0 0.0
2018-Aug-15 06:55N 33°58' W 118°27'0 0.0
2018-Aug-15 06:19N 33°58' W 118°27'0 0.0
2018-Aug-15 05:11N 33°58' W 118°27'0 0.0
2018-Aug-15 04:53N 33°58' W 118°27'0 0.0
2018-Aug-15 02:57N 33°58' W 118°27'0 0.0
2018-Aug-15 02:30N 33°58' W 118°27'0 0.0
2018-Aug-15 01:50N 33°58' W 118°27'0 0.0
2018-Aug-15 01:05N 33°58' W 118°27'0 0.0
2018-Aug-15 00:56N 33°58' W 118°27'0 0.9
2018-Aug-15 00:31N 33°59' W 118°27'2 4.9
2018-Aug-15 00:00N 33°59' W 118°30'1 2.8
2018-Aug-14 23:29N 33°60' W 118°31'0 0.7
2018-Aug-14 22:59N 33°60' W 118°31'1 1.7
2018-Aug-14 22:27N 34°00' W 118°32'1 1.6
2018-Aug-14 21:58N 34°01' W 118°33'1 1.4
2018-Aug-14 21:27N 34°01' W 118°33'0 0.0
2018-Aug-14 21:00N 34°01' W 118°33'1 1.3
2018-Aug-14 20:29N 34°01' W 118°33'4 8.5
2018-Aug-14 20:01N 33°58' W 118°29'2 4.7
2018-Aug-14 19:31N 33°59' W 118°27'3 5.6
2018-Aug-14 19:00N 33°56' W 118°28'5 9.6
2018-Aug-14 18:31N 33°52' W 118°31'0 0.2
2018-Aug-14 18:01N 33°52' W 118°31'0 0.3
2018-Aug-14 17:31N 33°52' W 118°31'0 0.9
2018-Aug-14 17:00N 33°52' W 118°31'2 4.0
2018-Aug-14 16:31N 33°52' W 118°28'3 5.7
2018-Aug-14 16:00N 33°51' W 118°25'1 3.0
2018-Aug-14 15:31N 33°52' W 118°26'5 9.5
2018-Aug-14 15:00N 33°57' W 118°27'2 3.2
2018-Aug-14 14:28N 33°59' W 118°27'0 0.8
2018-Aug-14 14:00N 33°58' W 118°27'0 0.0
2018-Aug-14 13:28N 33°58' W 118°27'0 0.0
2018-Aug-14 13:00N 33°58' W 118°27'0 0.0
2018-Aug-14 12:30N 33°58' W 118°27'0 0.0
2018-Aug-14 11:58N 33°58' W 118°27'0 0.0
2018-Aug-14 11:29N 33°58' W 118°27'0 0.0
2018-Aug-14 11:00N 33°58' W 118°27'0 0.0
2018-Aug-14 10:29N 33°58' W 118°27'0 0.0
2018-Aug-14 09:59N 33°58' W 118°27'0 0.0
2018-Aug-14 09:29N 33°58' W 118°27'0 0.0
2018-Aug-14 08:56N 33°58' W 118°27'0 0.0
2018-Aug-14 08:30N 33°58' W 118°27'0 0.0
2018-Aug-14 08:00N 33°58' W 118°27'0 0.0
2018-Aug-14 07:08N 33°58' W 118°27'0 0.0
2018-Aug-14 06:56N 33°58' W 118°27'0 0.0
2018-Aug-14 06:28N 33°58' W 118°27'0 0.0
2018-Aug-14 05:49N 33°58' W 118°27'0 0.0
2018-Aug-14 05:22N 33°58' W 118°27'0 0.0
2018-Aug-14 04:21N 33°58' W 118°27'0 0.0
2018-Aug-14 03:59N 33°58' W 118°27'0 0.0
2018-Aug-14 03:22N 33°58' W 118°27'0 0.0
2018-Aug-14 02:56N 33°58' W 118°27'0 0.0
2018-Aug-14 02:21N 33°58' W 118°27'0 0.0
2018-Aug-14 01:53N 33°58' W 118°27'0 0.0
2018-Aug-14 01:31N 33°58' W 118°27'0 0.0
2018-Aug-14 00:55N 33°58' W 118°27'0 0.5
2018-Aug-14 00:29N 33°59' W 118°27'4 7.5
2018-Aug-14 00:01N 33°56' W 118°29'3 6.8
2018-Aug-13 23:31N 33°53' W 118°32'0 0.0
2018-Aug-13 23:01N 33°53' W 118°32'1 2.1
2018-Aug-13 22:30N 33°53' W 118°31'2 3.2
2018-Aug-13 21:59N 33°54' W 118°29'2 4.7
2018-Aug-13 21:30N 33°55' W 118°27'0 0.0
2018-Aug-13 21:00N 33°55' W 118°27'0 0.7
2018-Aug-13 20:30N 33°55' W 118°27'3 5.7
2018-Aug-13 20:00N 33°58' W 118°27'0 0.4
2018-Aug-13 19:30N 33°58' W 118°27'4 8.8
2018-Aug-13 19:00N 33°55' W 118°31'3 5.4
2018-Aug-13 18:30N 33°53' W 118°33'0 0.0
2018-Aug-13 18:00N 33°53' W 118°33'1 1.2
2018-Aug-13 17:31N 33°53' W 118°32'4 8.9
2018-Aug-13 17:01N 33°55' W 118°27'0 0.3
2018-Aug-13 16:30N 33°55' W 118°27'1 1.3
2018-Aug-13 16:01N 33°55' W 118°26'1 1.9
2018-Aug-13 15:31N 33°54' W 118°27'2 4.9
2018-Aug-13 15:00N 33°57' W 118°28'2 3.9
2018-Aug-13 14:26N 33°59' W 118°27'0 0.9
2018-Aug-13 13:58N 33°58' W 118°27'0 0.0
2018-Aug-13 13:29N 33°58' W 118°27'0 0.0
2018-Aug-13 13:00N 33°58' W 118°27'0 0.0
2018-Aug-13 12:24N 33°58' W 118°27'0 0.0
2018-Aug-13 11:57N 33°58' W 118°27'0 0.0
2018-Aug-13 11:04N 33°58' W 118°27'0 0.0
2018-Aug-13 10:58N 33°58' W 118°27'0 0.0
2018-Aug-13 10:22N 33°58' W 118°27'0 0.0
2018-Aug-13 09:51N 33°58' W 118°27'0 0.0
2018-Aug-13 09:21N 33°58' W 118°27'0 0.0
2018-Aug-13 09:00N 33°58' W 118°27'0 0.0
2018-Aug-13 08:24N 33°58' W 118°27'0 0.0
2018-Aug-13 07:55N 33°58' W 118°27'0 0.0
2018-Aug-13 07:24N 33°58' W 118°27'0 0.0
2018-Aug-13 06:55N 33°58' W 118°27'0 0.0
2018-Aug-13 05:07N 33°58' W 118°27'0 0.0
2018-Aug-13 04:56N 33°58' W 118°27'0 0.0
2018-Aug-13 04:31N 33°58' W 118°27'0 0.0
2018-Aug-13 03:55N 33°58' W 118°27'0 0.0
2018-Aug-13 03:20N 33°58' W 118°27'0 0.0
2018-Aug-13 02:53N 33°58' W 118°27'0 0.0
2018-Aug-13 02:31N 33°58' W 118°27'0 0.0
2018-Aug-13 01:57N 33°58' W 118°27'0 0.0
2018-Aug-13 01:25N 33°58' W 118°27'0 0.9
2018-Aug-13 00:58N 33°59' W 118°27'1 1.3
2018-Aug-13 00:30N 33°58' W 118°27'3 6.0
2018-Aug-13 00:00N 33°55' W 118°27'0 0.2
2018-Aug-12 23:30N 33°55' W 118°27'0 0.0
2018-Aug-12 23:01N 33°55' W 118°27'4 8.7
2018-Aug-12 22:31N 33°53' W 118°31'1 2.2
2018-Aug-12 22:01N 33°52' W 118°33'0 0.0
2018-Aug-12 21:31N 33°52' W 118°33'0 0.1
2018-Aug-12 21:01N 33°52' W 118°33'4 8.1
2018-Aug-12 20:30N 33°55' W 118°29'4 7.2
2018-Aug-12 20:00N 33°58' W 118°27'0 0.2
2018-Aug-12 19:30N 33°58' W 118°27'4 7.7
2018-Aug-12 19:01N 33°55' W 118°30'4 7.0
2018-Aug-12 18:30N 33°53' W 118°32'0 0.2
2018-Aug-12 18:00N 33°53' W 118°32'0 1.0
2018-Aug-12 17:30N 33°53' W 118°33'0 0.0
2018-Aug-12 17:01N 33°53' W 118°33'4 7.6
2018-Aug-12 16:31N 33°55' W 118°28'0 0.0
2018-Aug-12 16:00N 33°55' W 118°28'0 0.1
2018-Aug-12 15:31N 33°54' W 118°28'3 6.9
2018-Aug-12 15:01N 33°58' W 118°27'1 2.1
2018-Aug-12 14:30N 33°59' W 118°27'0 0.7
2018-Aug-12 13:56N 33°58' W 118°27'0 0.0
2018-Aug-12 13:29N 33°58' W 118°27'0 0.0
2018-Aug-12 13:00N 33°58' W 118°27'0 0.0
2018-Aug-12 12:30N 33°58' W 118°27'0 0.0
2018-Aug-12 11:59N 33°58' W 118°27'0 0.0
2018-Aug-12 11:29N 33°58' W 118°27'0 0.0
2018-Aug-12 11:00N 33°58' W 118°27'0 0.0
2018-Aug-12 10:30N 33°58' W 118°27'0 0.0
2018-Aug-12 10:00N 33°58' W 118°27'0 0.0
2018-Aug-12 09:29N 33°58' W 118°27'0 0.0
2018-Aug-12 08:59N 33°58' W 118°27'0 0.0
2018-Aug-12 08:27N 33°58' W 118°27'0 0.0
2018-Aug-12 08:00N 33°58' W 118°27'0 0.0
2018-Aug-12 07:30N 33°58' W 118°27'0 0.0
2018-Aug-12 06:59N 33°58' W 118°27'0 0.0
2018-Aug-12 06:29N 33°58' W 118°27'0 0.7
2018-Aug-12 05:57N 33°59' W 118°27'1 3.0
2018-Aug-12 05:30N 33°58' W 118°28'1 2.4
2018-Aug-12 05:01N 33°58' W 118°29'0 0.1
2018-Aug-12 04:30N 33°58' W 118°29'0 0.1
2018-Aug-12 04:00N 33°58' W 118°29'1 2.4
2018-Aug-12 03:30N 33°57' W 118°29'0 0.3
2018-Aug-12 03:00N 33°57' W 118°29'1 2.5
2018-Aug-12 02:30N 33°58' W 118°29'0 0.2
2018-Aug-12 02:01N 33°58' W 118°29'1 1.9
2018-Aug-12 01:31N 33°58' W 118°28'1 2.7
2018-Aug-12 00:59N 33°59' W 118°27'0 0.4
2018-Aug-12 00:26N 33°59' W 118°27'2 5.0
2018-Aug-12 00:01N 33°57' W 118°28'1 2.5
2018-Aug-11 23:30N 33°55' W 118°27'1 2.1
2018-Aug-11 23:00N 33°55' W 118°29'4 8.8
2018-Aug-11 22:31N 33°53' W 118°33'0 0.1
2018-Aug-11 22:00N 33°53' W 118°34'0 0.2
2018-Aug-11 21:30N 33°53' W 118°33'0 0.0
2018-Aug-11 21:01N 33°53' W 118°33'3 6.2
2018-Aug-11 20:30N 33°55' W 118°31'4 8.1
2018-Aug-11 20:00N 33°58' W 118°27'1 1.2
2018-Aug-11 19:29N 33°59' W 118°27'3 5.6
2018-Aug-11 19:00N 33°56' W 118°28'4 8.9
2018-Aug-11 18:30N 33°53' W 118°32'0 0.8
2018-Aug-11 18:00N 33°53' W 118°32'0 0.8
2018-Aug-11 17:31N 33°53' W 118°32'0 0.7
2018-Aug-11 17:00N 33°53' W 118°33'0 0.7
2018-Aug-11 16:30N 33°53' W 118°33'0 0.0
2018-Aug-11 16:00N 33°53' W 118°33'4 8.5
2018-Aug-11 15:31N 33°55' W 118°28'3 5.8
2018-Aug-11 14:59N 33°58' W 118°28'2 3.1
2018-Aug-11 14:28N 33°59' W 118°27'0 0.4
2018-Aug-11 13:58N 33°59' W 118°27'0 0.5
2018-Aug-11 13:27N 33°58' W 118°27'0 0.0
2018-Aug-11 12:59N 33°58' W 118°27'0 0.0
2018-Aug-11 12:30N 33°58' W 118°27'0 0.0
2018-Aug-11 11:58N 33°58' W 118°27'0 0.0
2018-Aug-11 11:30N 33°58' W 118°27'0 0.0
2018-Aug-11 10:59N 33°58' W 118°27'0 0.0
2018-Aug-11 10:29N 33°58' W 118°27'0 0.0
2018-Aug-11 09:54N 33°58' W 118°27'0 0.0
2018-Aug-11 09:30N 33°58' W 118°27'0 0.0
2018-Aug-11 09:00N 33°58' W 118°27'0 0.0
2018-Aug-11 08:11N 33°58' W 118°27'0 0.0
2018-Aug-11 08:00N 33°58' W 118°27'0 0.0
2018-Aug-11 07:21N 33°58' W 118°27'0 0.0
2018-Aug-11 06:59N 33°58' W 118°27'0 0.0
2018-Aug-11 06:30N 33°58' W 118°27'0 0.4
2018-Aug-11 05:54N 33°59' W 118°27'0 0.4
2018-Aug-11 05:30N 33°58' W 118°27'4 7.8
2018-Aug-11 05:00N 33°60' W 118°31'2 1.3
2018-Aug-11 03:36N 34°01' W 118°33'0 0.0
2018-Aug-11 03:24N 34°01' W 118°33'0 0.7
2018-Aug-11 02:52N 34°01' W 118°33'0 0.0
2018-Aug-11 02:31N 34°01' W 118°33'1 1.4
2018-Aug-11 02:00N 34°01' W 118°32'4 8.8
2018-Aug-11 01:30N 33°58' W 118°28'1 2.7
2018-Aug-11 01:00N 33°59' W 118°27'0 0.0
2018-Aug-11 00:29N 33°59' W 118°27'1 3.1
2018-Aug-11 00:00N 33°57' W 118°27'2 4.1
2018-Aug-10 23:30N 33°55' W 118°27'0 0.0
2018-Aug-10 23:00N 33°55' W 118°27'0 0.1
2018-Aug-10 22:31N 33°55' W 118°27'4 7.0
2018-Aug-10 22:00N 33°54' W 118°31'1 2.2
2018-Aug-10 21:31N 33°53' W 118°32'0 0.1
2018-Aug-10 21:00N 33°53' W 118°32'3 5.2
2018-Aug-10 20:30N 33°55' W 118°30'4 7.8
2018-Aug-10 19:59N 33°58' W 118°27'1 1.1
2018-Aug-10 19:30N 33°59' W 118°27'3 6.8
2018-Aug-10 19:00N 33°56' W 118°29'4 8.5
2018-Aug-10 18:30N 33°53' W 118°33'0 0.1
2018-Aug-10 18:00N 33°53' W 118°33'0 0.0
2018-Aug-10 17:31N 33°53' W 118°33'2 3.2
2018-Aug-10 17:00N 33°53' W 118°31'4 7.9
2018-Aug-10 16:31N 33°55' W 118°26'0 0.0
2018-Aug-10 16:01N 33°54' W 118°26'2 3.8
2018-Aug-10 15:31N 33°54' W 118°28'4 8.3
2018-Aug-10 15:00N 33°58' W 118°27'0 0.8
2018-Aug-10 14:30N 33°58' W 118°27'0 0.0
2018-Aug-10 14:00N 33°58' W 118°27'0 0.2
2018-Aug-10 13:30N 33°58' W 118°27'0 0.0
2018-Aug-10 13:00N 33°58' W 118°27'0 0.0
2018-Aug-10 12:29N 33°58' W 118°27'0 0.0
2018-Aug-10 12:00N 33°58' W 118°27'0 0.0
2018-Aug-10 11:19N 33°58' W 118°27'0 0.0
2018-Aug-10 10:57N 33°58' W 118°27'0 0.0
2018-Aug-10 10:29N 33°58' W 118°27'0 0.0
2018-Aug-10 09:59N 33°58' W 118°27'0 0.0
2018-Aug-10 09:27N 33°58' W 118°27'0 0.0
2018-Aug-10 08:51N 33°58' W 118°27'0 0.0
2018-Aug-10 08:30N 33°58' W 118°27'0 0.0
2018-Aug-10 08:00N 33°58' W 118°27'0 0.0
2018-Aug-10 07:29N 33°58' W 118°27'0 0.0
2018-Aug-10 07:00N 33°58' W 118°27'0 0.0
2018-Aug-10 06:30N 33°58' W 118°27'0 0.0
2018-Aug-10 06:00N 33°58' W 118°27'0 0.0
2018-Aug-10 05:28N 33°58' W 118°27'0 0.0
2018-Aug-10 04:56N 33°58' W 118°27'0 0.0
2018-Aug-10 04:30N 33°58' W 118°27'0 0.0
2018-Aug-10 03:58N 33°58' W 118°27'0 0.0
2018-Aug-10 03:30N 33°58' W 118°27'0 0.0
2018-Aug-10 03:00N 33°58' W 118°27'0 0.0
2018-Aug-10 02:10N 33°58' W 118°27'0 0.0
2018-Aug-10 01:57N 33°58' W 118°27'0 0.0
2018-Aug-10 01:20N 33°58' W 118°27'0 0.3
2018-Aug-10 00:59N 33°58' W 118°27'0 0.2
2018-Aug-10 00:29N 33°59' W 118°27'4 7.8
2018-Aug-10 00:01N 33°56' W 118°30'4 7.6
2018-Aug-09 23:31N 33°53' W 118°33'0 0.0
2018-Aug-09 23:00N 33°53' W 118°33'0 1.0
2018-Aug-09 22:30N 33°53' W 118°32'4 8.5
2018-Aug-09 22:00N 33°55' W 118°28'1 1.4
2018-Aug-09 21:30N 33°55' W 118°27'0 0.0
2018-Aug-09 21:00N 33°55' W 118°27'1 1.6
2018-Aug-09 20:30N 33°56' W 118°27'2 4.5
2018-Aug-09 19:58N 33°58' W 118°27'1 1.5
2018-Aug-09 19:30N 33°58' W 118°27'5 9.2
2018-Aug-09 19:00N 33°53' W 118°28'5 9.6
2018-Aug-09 18:30N 33°48' W 118°29'1 2.1
2018-Aug-09 18:00N 33°47' W 118°29'0 0.4
2018-Aug-09 17:29N 33°47' W 118°29'1 2.0
2018-Aug-09 17:00N 33°47' W 118°28'2 3.3
2018-Aug-09 16:30N 33°46' W 118°26'1 1.2
2018-Aug-09 16:00N 33°47' W 118°26'4 9.0
2018-Aug-09 15:30N 33°51' W 118°26'510.0
2018-Aug-09 15:00N 33°56' W 118°27'2 5.0
2018-Aug-09 14:30N 33°59' W 118°27'0 0.7
2018-Aug-09 13:59N 33°58' W 118°27'0 0.0
2018-Aug-09 13:29N 33°58' W 118°27'0 0.0
2018-Aug-09 12:58N 33°58' W 118°27'0 0.0
2018-Aug-09 12:28N 33°58' W 118°27'0 0.0
2018-Aug-09 11:46N 33°58' W 118°27'0 0.0
2018-Aug-09 11:29N 33°58' W 118°27'0 0.0
2018-Aug-09 10:27N 33°58' W 118°27'0 0.0
2018-Aug-09 09:37N 33°58' W 118°27'0 0.0
2018-Aug-09 09:24N 33°58' W 118°27'0 0.0
2018-Aug-09 07:57N 33°58' W 118°27'0 0.0
2018-Aug-09 07:29N 33°58' W 118°27'0 0.0
2018-Aug-09 06:55N 33°58' W 118°27'0 0.0
2018-Aug-09 06:22N 33°58' W 118°27'0 0.0
2018-Aug-09 05:50N 33°58' W 118°27'0 0.0
2018-Aug-09 05:27N 33°58' W 118°27'0 0.0
2018-Aug-09 04:58N 33°58' W 118°27'0 0.0
2018-Aug-09 04:30N 33°58' W 118°27'0 0.0
2018-Aug-09 03:56N 33°58' W 118°27'0 0.0
2018-Aug-09 03:26N 33°58' W 118°27'0 0.0
2018-Aug-09 02:56N 33°58' W 118°27'0 0.0
2018-Aug-09 02:26N 33°58' W 118°27'0 0.0
2018-Aug-09 01:47N 33°58' W 118°27'0 0.0
2018-Aug-09 01:22N 33°58' W 118°27'0 0.0
2018-Aug-09 00:40N 33°58' W 118°27'0 2.0
2018-Aug-09 00:30N 33°59' W 118°27'1 1.3
2018-Aug-09 00:00N 33°58' W 118°27'2 4.7
2018-Aug-08 23:30N 33°56' W 118°28'0 0.1
2018-Aug-08 23:00N 33°56' W 118°28'0 0.8
2018-Aug-08 22:30N 33°56' W 118°28'1 2.1
2018-Aug-08 22:00N 33°55' W 118°28'1 1.4
2018-Aug-08 21:30N 33°55' W 118°27'0 0.9
2018-Aug-08 21:00N 33°55' W 118°27'0 0.0
2018-Aug-08 20:30N 33°55' W 118°27'3 5.1
2018-Aug-08 20:00N 33°58' W 118°28'1 2.7
2018-Aug-08 19:30N 33°59' W 118°27'1 2.7
2018-Aug-08 19:00N 33°58' W 118°28'4 8.8
2018-Aug-08 18:30N 34°00' W 118°32'0 0.9
2018-Aug-08 18:00N 34°01' W 118°33'0 0.6
2018-Aug-08 17:29N 34°01' W 118°32'0 0.2
2018-Aug-08 17:00N 34°01' W 118°32'0 0.2
2018-Aug-08 16:26N 34°01' W 118°32'0 0.4
2018-Aug-08 15:59N 34°01' W 118°32'0 0.4
2018-Aug-08 15:28N 34°01' W 118°32'4 8.6
2018-Aug-08 15:00N 33°58' W 118°28'2 3.4
2018-Aug-08 14:30N 33°59' W 118°27'0 0.0
2018-Aug-08 05:36N 33°58' W 118°27'0 0.0
2018-Aug-08 05:23N 33°58' W 118°27'0 0.0
2018-Aug-08 03:30N 33°58' W 118°27'0 0.0
2018-Aug-08 01:55N 33°58' W 118°27'0 0.0
2018-Aug-08 01:29N 33°58' W 118°27'0 0.7
2018-Aug-08 00:58N 33°59' W 118°27'0 0.0
2018-Aug-08 00:30N 33°59' W 118°27'4 7.4
2018-Aug-08 00:00N 33°56' W 118°29'4 7.3
2018-Aug-07 23:30N 33°53' W 118°32'0 0.0
2018-Aug-07 22:59N 33°53' W 118°32'0 0.2
2018-Aug-07 22:30N 33°53' W 118°32'0 0.0
2018-Aug-07 22:00N 33°53' W 118°32'0 0.9
2018-Aug-07 21:29N 33°53' W 118°32'0 0.1
2018-Aug-07 21:00N 33°53' W 118°32'3 6.4
2018-Aug-07 20:30N 33°55' W 118°30'4 7.6
2018-Aug-07 19:58N 33°58' W 118°27'0 0.8
2018-Aug-07 19:30N 33°59' W 118°27'3 5.9
2018-Aug-07 19:00N 33°59' W 118°30'2 4.7
2018-Aug-07 18:30N 34°01' W 118°32'1 1.9
2018-Aug-07 18:00N 34°02' W 118°32'0 0.2
2018-Aug-07 17:30N 34°02' W 118°32'1 2.2
2018-Aug-07 16:59N 34°01' W 118°33'0 0.1
2018-Aug-07 16:30N 34°01' W 118°33'0 0.2
2018-Aug-07 16:00N 34°01' W 118°33'0 0.0
2018-Aug-07 15:30N 34°01' W 118°33'5 9.0
2018-Aug-07 15:00N 33°58' W 118°29'2 4.5
2018-Aug-07 14:30N 33°59' W 118°27'0 0.5
2018-Aug-07 13:46N 33°58' W 118°27'0 0.0
2018-Aug-07 12:22N 33°58' W 118°27'0 0.0
2018-Aug-07 06:52N 33°58' W 118°27'0 0.0
2018-Aug-07 06:23N 33°58' W 118°27'0 0.0
2018-Aug-07 05:54N 33°58' W 118°27'0 0.0
2018-Aug-07 03:45N 33°58' W 118°27'0 0.0
2018-Aug-07 03:22N 33°58' W 118°27'0 0.0
2018-Aug-07 02:56N 33°58' W 118°27'0 0.0
2018-Aug-07 02:27N 33°58' W 118°27'0 0.0
2018-Aug-07 02:00N 33°58' W 118°27'0 0.0
2018-Aug-07 01:21N 33°58' W 118°27'0 1.1
2018-Aug-07 01:00N 33°59' W 118°27'0 0.3
2018-Aug-07 00:29N 33°59' W 118°27'3 6.2
2018-Aug-07 00:00N 33°56' W 118°27'0 0.7
2018-Aug-06 23:30N 33°55' W 118°27'0 0.1
2018-Aug-06 23:00N 33°55' W 118°27'5 9.5
2018-Aug-06 22:30N 33°53' W 118°33'0 0.7
2018-Aug-06 22:00N 33°53' W 118°33'0 0.0
2018-Aug-06 21:30N 33°53' W 118°33'1 1.9
2018-Aug-06 21:00N 33°53' W 118°32'3 5.3
2018-Aug-06 20:30N 33°55' W 118°29'4 8.3
2018-Aug-06 20:00N 33°58' W 118°27'  

Dump ship's entire track history